.
WxDataArchive / Data Records for 2007-06-24
2007-06-23 June 2007 2007-06-25

Data Records for Sunday, 24 June 2007

Time	Temp	Chill	HIndex	Humid	Dewpt	 Wind 	HiWind	WindDir	Rain 	Barom 
-----	----	-----	------	-----	-----	------	------	-------	-----	----- 
00:00	64.3	64.3	64.3	74	55.8	1	2	90	0.00	29.934 
00:05	64.3	64.3	64.3	74	55.8	1	2	90	0.00	29.933 
00:10	64.3	64.3	64.3	74	55.8	1	4	112	0.00	29.935 
00:15	64.5	64.5	64.5	74	56.0	1	3	112	0.00	29.936 
00:20	64.5	64.5	64.5	74	56.0	0	2	180	0.00	29.937 
00:25	64.5	64.5	64.5	75	56.4	0	2	158	0.00	29.937 
00:30	64.5	64.5	64.5	75	56.4	0	2	158	0.00	29.938 
00:35	64.5	64.5	64.5	75	56.4	1	3	112	0.00	29.939 
00:40	64.5	64.5	64.5	75	56.4	0	2	90	0.00	29.939 
00:45	64.5	64.5	64.5	75	56.4	1	3	90	0.00	29.936 
00:50	64.3	64.3	64.3	75	56.2	0	2	112	0.00	29.935 
00:55	64.3	64.3	64.3	75	56.2	0	2	112	0.00	29.934 
01:00	64.3	64.3	64.3	76	56.6	0	1	112	0.00	29.929 
01:05	64.2	64.2	64.2	76	56.5	1	4	68	0.00	29.928 
01:10	64.2	64.2	64.2	76	56.5	1	2	68	0.00	29.925 
01:15	64.0	64.0	64.0	76	56.3	1	3	68	0.00	29.927 
01:20	64.0	64.0	64.0	76	56.3	1	3	112	0.00	29.927 
01:25	64.0	64.0	64.0	77	56.6	0	2	112	0.00	29.921 
01:30	64.0	64.0	64.0	77	56.6	0	2	135	0.00	29.926 
01:35	64.0	64.0	64.0	77	56.6	1	3	135	0.00	29.925 
01:40	63.9	63.9	63.9	77	56.5	2	5	90	0.00	29.919 
01:45	63.9	63.9	63.9	77	56.5	1	3	90	0.00	29.918 
01:50	63.7	63.7	63.7	77	56.3	2	4	90	0.00	29.917 
01:55	63.5	63.5	63.5	77	56.2	1	3	90	0.00	29.918 
02:00	63.4	63.4	63.4	78	56.4	1	2	68	0.00	29.919 
02:05	63.2	63.2	63.2	79	56.6	0	2	68	0.00	29.915 
02:10	63.2	63.2	63.2	80	56.9	1	3	68	0.00	29.911 
02:15	63.1	63.1	63.1	80	56.8	0	3	68	0.00	29.913 
02:20	63.1	63.1	63.1	82	57.5	0	2	68	0.00	29.911 
02:25	62.9	62.9	62.9	84	58.0	1	3	112	0.00	29.909 
02:30	62.7	62.7	62.7	85	58.1	1	3	112	0.00	29.907 
02:35	62.4	62.4	62.4	87	58.5	1	3	112	0.00	29.906 
02:40	62.3	62.3	62.3	88	58.7	1	2	135	0.00	29.905 
02:45	62.1	62.1	62.1	89	58.8	1	3	135	0.00	29.905 
02:50	62.0	62.0	62.0	89	58.7	2	5	90	0.00	29.907 
02:55	62.0	62.0	62.0	89	58.7	0	3	68	0.00	29.911 
03:00	62.0	62.0	62.0	89	58.7	2	4	68	0.00	29.913 
03:05	62.0	62.0	62.0	89	58.7	1	4	112	0.00	29.910 
03:10	62.0	62.0	62.0	90	59.0	1	3	112	0.00	29.909 
03:15	62.0	62.0	62.0	90	59.0	0	2	112	0.00	29.910 
03:20	62.0	62.0	62.0	90	59.0	0	2	135	0.00	29.911 
03:25	62.0	62.0	62.0	90	59.0	0	2	135	0.00	29.908 
03:30	62.0	62.0	62.0	90	59.0	0	2	135	0.00	29.907 
03:35	61.8	61.8	61.8	91	59.1	1	2	112	0.00	29.907 
03:40	61.8	61.8	61.8	91	59.1	1	3	90	0.00	29.907 
03:45	61.8	61.8	61.8	91	59.1	1	2	90	0.00	29.906 
03:50	61.8	61.8	61.8	91	59.1	1	3	68	0.00	29.907 
03:55	61.6	61.6	61.6	91	58.9	0	1	112	0.00	29.906 
04:00	61.6	61.6	61.6	92	59.2	0	3	112	0.00	29.906 
04:05	61.6	61.6	61.6	92	59.2	0	2	112	0.00	29.911 
04:10	61.6	61.6	61.6	92	59.2	0	2	112	0.00	29.914 
04:15	61.5	61.5	61.5	92	59.2	0	2	112	0.00	29.920 
04:20	61.5	61.5	61.5	92	59.2	0	1	112	0.00	29.923 
04:25	61.5	61.5	61.5	92	59.2	0	2	112	0.00	29.924 
04:30	61.5	61.5	61.5	92	59.2	1	2	112	0.00	29.924 
04:35	61.5	61.5	61.5	92	59.2	1	2	112	0.00	29.926 
04:40	61.3	61.3	61.3	92	59.0	1	3	90	0.00	29.927 
04:45	61.3	61.3	61.3	91	58.6	0	1	90	0.00	29.926 
04:50	61.3	61.3	61.3	92	59.0	0	3	112	0.00	29.926 
04:55	61.5	61.5	61.5	92	59.2	1	4	112	0.00	29.928 
05:00	61.5	61.5	61.5	92	59.2	1	2	90	0.00	29.934 
05:05	61.3	61.3	61.3	92	59.0	1	3	90	0.00	29.938 
05:10	61.3	61.3	61.3	92	59.0	1	3	90	0.00	29.940 
05:15	61.3	61.3	61.3	92	59.0	1	3	90	0.00	29.942 
05:20	61.3	61.3	61.3	92	59.0	1	2	90	0.00	29.944 
05:25	61.3	61.3	61.3	92	59.0	1	3	90	0.00	29.948 
05:30	61.3	61.3	61.3	92	59.0	0	1	90	0.00	29.952 
05:35	61.5	61.5	61.5	92	59.2	0	2	90	0.00	29.952 
05:40	61.5	61.5	61.5	92	59.2	0	1	90	0.00	29.953 
05:45	61.5	61.5	61.5	92	59.2	0	2	90	0.00	29.954 
05:50	61.5	61.5	61.5	92	59.2	0	2	90	0.00	29.955 
05:55	61.6	61.6	61.6	92	59.2	1	3	90	0.00	29.955 
06:00	61.6	61.6	61.6	92	59.2	1	3	90	0.00	29.955 
06:05	61.6	61.6	61.6	92	59.2	1	2	90	0.00	29.956 
06:10	61.6	61.6	61.6	92	59.2	1	2	90	0.00	29.957 
06:15	61.6	61.6	61.6	92	59.2	1	3	90	0.00	29.957 
06:20	61.8	61.8	61.8	92	59.4	1	3	90	0.00	29.956 
06:25	61.8	61.8	61.8	92	59.4	1	3	112	0.00	29.958 
06:30	61.8	61.8	61.8	91	59.1	1	4	68	0.00	29.958 
06:35	62.0	62.0	62.0	91	59.3	1	4	68	0.00	29.956 
06:40	62.0	62.0	62.0	91	59.3	2	5	90	0.00	29.955 
06:45	62.1	62.1	62.1	90	59.1	2	6	68	0.00	29.954 
06:50	62.1	62.1	62.1	90	59.1	2	5	90	0.00	29.955 
06:55	62.3	62.3	62.3	90	59.3	2	5	90	0.00	29.957 
07:00	62.4	62.4	62.4	89	59.1	2	4	90	0.00	29.956 
07:05	62.4	62.4	62.4	89	59.1	1	5	90	0.00	29.956 
07:10	62.6	62.6	62.6	88	59.0	2	3	90	0.00	29.959 
07:15	62.6	62.6	62.6	87	58.7	2	3	90	0.00	29.962 
07:20	62.7	62.7	62.7	87	58.8	2	4	90	0.00	29.966 
07:25	62.9	62.9	62.9	86	58.6	2	6	90	0.00	29.970 
07:30	63.1	63.1	63.1	85	58.5	2	5	68	0.00	29.970 
07:35	63.2	63.2	63.2	85	58.6	1	3	68	0.00	29.972 
07:40	63.5	63.5	63.5	84	58.6	1	5	112	0.00	29.972 
07:45	63.7	63.7	63.7	83	58.4	1	4	90	0.00	29.970 
07:50	63.9	63.9	63.9	83	58.6	1	3	158	0.00	29.971 
07:55	63.9	63.9	63.9	82	58.3	2	6	68	0.00	29.973 
08:00	63.9	63.9	63.9	81	57.9	1	4	112	0.00	29.978 
08:05	63.9	63.9	63.9	81	57.9	2	4	90	0.00	29.977 
08:10	63.9	63.9	63.9	81	57.9	2	4	90	0.00	29.980 
08:15	64.0	64.0	64.0	81	58.0	1	5	112	0.00	29.984 
08:20	64.2	64.2	64.2	81	58.2	1	4	90	0.00	29.985 
08:25	64.3	64.3	64.3	80	58.0	2	4	112	0.00	29.982 
08:30	64.5	64.5	64.5	80	58.2	1	2	112	0.00	29.982 
08:35	64.8	64.8	64.8	80	58.5	1	5	112	0.00	29.982 
08:40	65.0	65.0	65.0	77	57.6	1	3	135	0.00	29.983 
08:45	65.2	65.2	65.2	77	57.8	2	6	112	0.00	29.985 
08:50	65.2	65.2	65.2	77	57.8	2	4	90	0.00	29.984 
08:55	65.3	65.3	65.3	76	57.5	2	4	90	0.00	29.984 
09:00	65.5	65.5	65.5	76	57.7	1	3	90	0.00	29.984 
09:05	65.3	65.3	65.3	76	57.5	2	5	90	0.00	29.987 
09:10	65.2	65.2	65.2	76	57.4	3	5	112	0.00	29.987 
09:15	65.2	65.2	65.2	77	57.8	1	3	112	0.00	29.986 
09:20	65.2	65.2	65.2	76	57.4	2	5	90	0.00	29.986 
09:25	65.2	65.2	65.2	76	57.4	1	4	90	0.00	29.986 
09:30	65.2	65.2	65.2	76	57.4	1	4	90	0.00	29.986 
09:35	65.2	65.2	65.2	76	57.4	2	3	112	0.00	29.986 
09:40	65.2	65.2	65.2	76	57.4	1	4	90	0.00	29.986 
09:45	65.5	65.5	65.5	77	58.1	1	3	135	0.00	29.986 
09:50	65.5	65.5	65.5	76	57.7	1	4	90	0.00	29.986 
09:55	65.5	65.5	65.5	77	58.1	1	6	112	0.00	29.985 
10:00	65.5	65.5	65.5	77	58.1	1	4	112	0.00	29.983 
10:05	65.5	65.5	65.5	78	58.5	1	3	90	0.00	29.981 
10:10	65.8	65.8	65.8	79	59.1	1	2	90	0.00	29.979 
10:15	66.0	66.0	66.0	79	59.3	1	3	90	0.00	29.977 
10:20	66.1	66.1	66.1	77	58.7	2	4	135	0.00	29.975 
10:25	66.1	66.1	66.1	77	58.7	2	5	90	0.00	29.971 
10:30	66.3	66.3	66.3	77	58.9	2	5	90	0.00	29.971 
10:35	66.3	66.3	66.3	76	58.5	2	5	90	0.00	29.971 
10:40	66.4	66.4	66.4	77	59.0	1	4	112	0.00	29.971 
10:45	66.6	66.6	66.6	78	59.5	1	4	112	0.00	29.974 
10:50	66.8	66.8	66.8	77	59.3	2	5	90	0.00	29.972 
10:55	66.9	66.9	66.9	75	58.7	2	5	90	0.00	29.971 
11:00	67.3	67.3	67.3	76	59.5	1	5	112	0.00	29.971 
11:05	68.1	68.1	68.1	75	59.9	1	3	90	0.00	29.970 
11:10	68.3	68.3	68.3	73	59.3	1	4	112	0.00	29.973 
11:15	67.9	67.9	67.9	73	58.9	2	6	112	0.00	29.971 
11:20	67.8	67.8	67.8	74	59.2	1	5	90	0.00	29.970 
11:25	67.4	67.4	67.4	74	58.8	1	4	68	0.00	29.969 
11:30	67.6	67.6	67.6	76	59.8	1	4	90	0.00	29.971 
11:35	67.4	67.4	67.4	76	59.6	1	4	112	0.00	29.974 
11:40	67.4	67.4	67.4	76	59.6	2	6	90	0.00	29.980 
11:45	67.6	67.6	67.6	77	60.1	1	3	90	0.00	29.977 
11:50	67.8	67.8	67.8	77	60.3	1	4	112	0.00	29.978 
11:55	67.6	67.6	67.6	77	60.1	2	4	90	0.00	29.979 
12:00	67.3	67.3	67.3	77	59.8	2	4	90	0.00	29.981 
12:05	67.1	67.1	67.1	77	59.6	1	4	90	0.00	29.982 
12:10	67.1	67.1	67.1	80	60.7	1	3	68	0.00	29.982 
12:15	67.3	67.3	67.3	79	60.6	1	4	90	0.00	29.982 
12:20	67.6	67.6	67.6	79	60.8	0	2	90	0.00	29.980 
12:25	67.9	67.9	67.9	79	61.1	0	2	135	0.00	29.978 
12:30	68.4	68.4	68.4	79	61.6	1	3	135	0.00	29.975 
12:35	68.8	68.8	68.8	77	61.3	1	3	112	0.00	29.976 
12:40	68.9	68.9	68.9	78	61.7	1	3	112	0.00	29.975 
12:45	68.9	68.9	68.9	78	61.7	1	3	112	0.00	29.971 
12:50	69.1	69.1	69.1	78	61.9	1	2	112	0.00	29.974 
12:55	68.9	68.9	68.9	78	61.7	1	3	112	0.00	29.973 
13:00	68.8	68.8	68.8	79	62.0	1	3	112	0.00	29.972 
13:05	68.6	68.6	68.6	79	61.8	1	3	90	0.00	29.975 
13:10	68.3	68.3	68.3	80	61.9	1	3	112	0.00	29.979 
13:15	68.3	68.3	68.3	81	62.2	1	2	112	0.00	29.979 
13:20	68.3	68.3	68.3	81	62.2	1	3	112	0.00	29.980 
13:25	68.4	68.4	68.4	81	62.3	1	2	112	0.00	29.978 
13:30	68.8	68.8	68.8	80	62.4	1	4	90	0.00	29.974 
13:35	69.1	69.1	69.1	80	62.7	1	3	112	0.00	29.976 
13:40	69.3	69.3	69.3	79	62.5	1	4	90	0.00	29.976 
13:45	69.4	69.4	69.4	80	63.0	1	3	90	0.00	29.976 
13:50	69.6	69.6	69.6	79	62.8	1	4	90	0.00	29.978 
13:55	69.6	69.6	69.6	79	62.8	2	4	90	0.00	29.975 
14:00	69.8	69.8	69.8	78	62.6	1	3	90	0.00	29.972 
14:05	70.1	70.1	70.1	78	62.9	0	2	90	0.00	29.973 
14:10	70.8	70.8	70.8	79	64.0	1	4	68	0.00	29.972 
14:15	71.6	71.6	71.6	76	63.6	1	4	112	0.00	29.968 
14:20	72.5	72.5	72.5	74	63.7	1	4	90	0.00	29.966 
14:25	73.2	73.2	73.2	73	64.0	2	5	112	0.00	29.966 
14:30	73.3	73.3	73.3	75	64.9	1	4	112	0.00	29.965 
14:35	73.5	73.5	73.5	73	64.3	2	4	90	0.00	29.964 
14:40	73.9	73.9	73.9	72	64.3	1	3	112	0.00	29.970 
14:45	73.9	73.9	73.9	72	64.3	0	2	112	0.00	29.973 
14:50	74.4	74.4	74.4	70	64.0	1	4	112	0.00	29.973 
14:55	74.2	74.2	74.2	72	64.6	1	4	90	0.00	29.973 
15:00	74.4	74.4	74.4	70	64.0	1	3	112	0.00	29.967 
15:05	74.4	74.4	74.4	71	64.4	2	4	90	0.00	29.965 
15:10	74.9	74.9	74.9	70	64.4	1	3	90	0.00	29.964 
15:15	74.9	74.9	74.9	69	64.0	2	4	90	0.00	29.961 
15:20	74.9	74.9	74.9	69	64.0	2	5	90	0.00	29.963 
15:25	75.1	75.1	76.9	69	64.2	1	3	112	0.00	29.961 
15:30	75.8	75.8	77.6	68	64.5	1	4	112	0.00	29.957 
15:35	76.3	76.3	78.1	66	64.1	2	5	90	0.00	29.952 
15:40	76.7	76.7	78.5	66	64.5	1	3	112	0.00	29.950 
15:45	76.8	76.8	78.6	65	64.1	1	2	112	0.00	29.951 
15:50	76.7	76.7	78.5	66	64.5	1	3	112	0.00	29.954 
15:55	76.0	76.0	77.8	67	64.2	2	3	90	0.00	29.951 
16:00	76.0	76.0	77.8	67	64.2	1	3	135	0.00	29.952 
16:05	76.0	76.0	77.8	67	64.2	0	2	90	0.00	29.951 
16:10	76.1	76.1	77.9	67	64.3	1	3	90	0.00	29.951 
16:15	76.5	76.5	78.3	66	64.3	0	2	68	0.00	29.952 
16:20	76.5	76.5	78.3	66	64.3	1	3	135	0.00	29.951 
16:25	76.3	76.3	78.1	67	64.5	2	4	90	0.00	29.949 
16:30	76.0	76.0	77.8	67	64.2	1	3	90	0.00	29.947 
16:35	76.1	76.1	77.8	68	64.8	0	1	90	0.00	29.946 
16:40	76.3	76.3	78.1	67	64.5	1	2	90	0.00	29.946 
16:45	76.7	76.7	78.5	67	64.9	1	3	112	0.00	29.946 
16:50	76.5	76.5	78.3	66	64.3	1	3	112	0.00	29.947 
16:55	76.5	76.5	78.3	68	65.1	0	1	112	0.00	29.946 
17:00	76.3	76.3	78.1	66	64.1	1	2	112	0.00	29.947 
17:05	76.3	76.3	78.1	66	64.1	0	2	112	0.00	29.948 
17:10	76.1	76.1	77.9	66	63.9	0	1	112	0.00	29.948 
17:15	76.1	76.1	77.9	67	64.3	1	3	112	0.00	29.949 
17:20	76.3	76.3	78.1	67	64.5	0	1	112	0.00	29.949 
17:25	76.3	76.3	78.1	67	64.5	0	1	112	0.00	29.948 
17:30	76.7	76.7	78.5	66	64.5	0	2	112	0.00	29.947 
17:35	76.7	76.7	78.5	67	64.9	0	3	135	0.00	29.948 
17:40	76.7	76.7	78.5	66	64.5	0	3	135	0.00	29.947 
17:45	76.5	76.5	78.3	67	64.7	0	2	248	0.00	29.948 
17:50	76.3	76.3	78.1	67	64.5	0	2	248	0.00	29.948 
17:55	76.3	76.3	78.0	68	64.9	0	1	248	0.00	29.950 
18:00	76.3	76.3	78.1	67	64.5	0	2	248	0.00	29.950 
18:05	76.3	76.3	78.1	67	64.5	0	2	248	0.00	29.950 
18:10	76.3	76.3	78.0	68	64.9	0	2	248	0.00	29.952 
18:15	76.0	76.0	77.7	68	64.7	0	1	270	0.00	29.952 
18:20	75.8	75.8	77.5	69	64.9	0	3	270	0.00	29.954 
18:25	75.6	75.6	77.3	69	64.7	0	2	248	0.00	29.955 
18:30	75.4	75.4	77.1	70	64.9	0	1	112	0.00	29.960 
18:35	75.4	75.4	77.1	70	64.9	0	1	112	0.00	29.961 
18:40	75.3	75.3	77.0	70	64.8	1	3	112	0.00	29.961 
18:45	75.1	75.1	76.7	71	65.0	1	3	90	0.00	29.962 
18:50	74.7	74.7	74.7	72	65.1	1	4	90	0.00	29.963 
18:55	74.4	74.4	74.4	72	64.8	2	7	90	0.00	29.963 
19:00	74.2	74.2	74.2	73	65.0	0	3	112	0.00	29.963 
19:05	74.0	74.0	74.0	74	65.2	1	3	225	0.00	29.963 
19:10	73.9	73.9	73.9	74	65.1	1	3	248	0.00	29.964 
19:15	73.9	73.9	73.9	75	65.5	0	3	248	0.00	29.963 
19:20	73.9	73.9	73.9	75	65.5	0	4	90	0.00	29.964 
19:25	73.9	73.9	73.9	75	65.5	0	1	90	0.00	29.966 
19:30	73.7	73.7	73.7	76	65.6	0	1	90	0.00	29.964 
19:35	73.5	73.5	73.5	76	65.5	0	1	90	0.00	29.966 
19:40	73.5	73.5	73.5	77	65.8	0	1	90	0.00	29.972 
19:45	73.3	73.3	73.3	77	65.6	0	0	---	0.00	29.974 
19:50	73.2	73.2	73.2	78	65.9	0	1	90	0.00	29.974 
19:55	73.0	73.0	73.0	78	65.7	0	2	112	0.00	29.973 
20:00	72.8	72.8	72.8	78	65.5	0	1	112	0.00	29.970 
20:05	72.7	72.7	72.7	79	65.8	0	1	112	0.00	29.967 
20:10	72.5	72.5	72.5	80	66.0	0	0	---	0.00	29.966 
20:15	72.3	72.3	72.3	80	65.8	0	1	112	0.00	29.965 
20:20	72.0	72.0	72.0	81	65.8	0	0	---	0.00	29.968 
20:25	71.6	71.6	71.6	81	65.4	0	0	---	0.00	29.972 
20:30	71.3	71.3	71.3	82	65.5	0	0	---	0.00	29.974 
20:35	71.1	71.1	71.1	83	65.7	0	2	112	0.00	29.972 
20:40	70.9	70.9	70.9	83	65.5	0	1	112	0.00	29.970 
20:45	70.8	70.8	70.8	83	65.4	0	1	112	0.00	29.967 
20:50	70.6	70.6	70.6	84	65.5	0	0	---	0.00	29.967 
20:55	70.4	70.4	70.4	84	65.3	0	0	---	0.00	29.972 
21:00	70.3	70.3	70.3	84	65.2	0	0	---	0.00	29.974 
21:05	70.1	70.1	70.1	84	65.0	0	0	---	0.00	29.978 
21:10	69.8	69.8	69.8	85	65.1	0	0	---	0.00	29.979 
21:15	69.4	69.4	69.4	85	64.7	0	0	---	0.00	29.980 
21:20	69.3	69.3	69.3	86	64.9	0	0	---	0.00	29.982 
21:25	68.9	68.9	68.9	87	64.9	0	0	---	0.00	29.982 
21:30	68.8	68.8	68.8	88	65.1	0	0	---	0.00	29.984 
21:35	68.8	68.8	68.8	88	65.1	0	0	---	0.00	29.987 
21:40	68.6	68.6	68.6	89	65.2	0	0	---	0.00	29.987 
21:45	68.4	68.4	68.4	89	65.0	0	1	112	0.00	29.989 
21:50	68.4	68.4	68.4	90	65.3	0	0	---	0.00	29.992 
21:55	68.4	68.4	68.4	90	65.3	0	0	---	0.00	29.993 
22:00	68.3	68.3	68.3	89	64.9	0	0	---	0.00	29.995 
22:05	68.1	68.1	68.1	89	64.7	0	0	---	0.00	29.996 
22:10	67.9	67.9	67.9	90	64.9	0	0	---	0.00	29.998 
22:15	67.8	67.8	67.8	90	64.8	0	0	---	0.00	30.000 
22:20	67.6	67.6	67.6	91	64.9	0	0	---	0.00	30.006 
22:25	67.4	67.4	67.4	91	64.7	0	0	---	0.00	30.009 
22:30	67.1	67.1	67.1	91	64.4	0	0	---	0.00	30.009 
22:35	66.9	66.9	66.9	92	64.5	0	0	---	0.00	30.009 
22:40	66.9	66.9	66.9	92	64.5	0	0	---	0.00	30.010 
22:45	66.8	66.8	66.8	92	64.4	0	0	---	0.00	30.010 
22:50	66.8	66.8	66.8	93	64.7	0	0	---	0.00	30.010 
22:55	66.8	66.8	66.8	93	64.7	0	0	---	0.00	30.012 
23:00	66.6	66.6	66.6	93	64.5	0	0	---	0.00	30.012 
23:05	66.4	66.4	66.4	93	64.3	0	0	---	0.00	30.012 
23:10	66.4	66.4	66.4	94	64.6	0	0	---	0.00	30.013 
23:15	66.3	66.3	66.3	94	64.5	0	0	---	0.00	30.013 
23:20	66.1	66.1	66.1	94	64.3	0	0	---	0.00	30.014 
23:25	66.1	66.1	66.1	94	64.3	0	0	---	0.00	30.015 
23:30	66.0	66.0	66.0	94	64.2	0	0	---	0.00	30.016 
23:35	66.0	66.0	66.0	94	64.2	0	0	---	0.00	30.016 
23:40	65.8	65.8	65.8	95	64.3	0	0	---	0.00	30.015 
23:45	65.8	65.8	65.8	95	64.3	0	0	---	0.00	30.016 
23:50	65.8	65.8	65.8	95	64.3	0	0	---	0.00	30.015 
23:55	65.6	65.6	65.6	95	64.1	0	0	---	0.00	30.016 

CoCoRaHS
IN-AL-39
A2 Web Hosting
Creative Commons License
GoDaddy
Look for:

loaded 2017-12-13 10:01:18 • last modified 2010-11-18 10:43:29
Privacy PolicyDisclaimer
• wx.awcolley.com is powered by PmWiki v.2002016 •
• all content (unless otherwise noted) © 2017 A W Colley